sensor_id;sensor_type;location;lat;lon;timestamp;pressure;altitude;pressure_sealevel;temperature;humidity
60355;BME280;46198;51.464;-0.066;2022-07-21T00:00:56;101844.00;;;19.47;78.09
60355;BME280;46198;51.464;-0.066;2022-07-21T00:03:24;101836.84;;;19.46;78.12
60355;BME280;46198;51.464;-0.066;2022-07-21T00:05:52;101843.81;;;19.54;79.24
60355;BME280;46198;51.464;-0.066;2022-07-21T00:08:20;101854.50;;;19.51;80.67
60355;BME280;46198;51.464;-0.066;2022-07-21T00:10:50;101848.84;;;19.40;82.25
60355;BME280;46198;51.464;-0.066;2022-07-21T00:13:19;101841.19;;;19.42;82.34
60355;BME280;46198;51.464;-0.066;2022-07-21T00:15:48;101843.72;;;19.27;81.18
60355;BME280;46198;51.464;-0.066;2022-07-21T00:18:17;101841.47;;;19.24;82.44
60355;BME280;46198;51.464;-0.066;2022-07-21T00:20:45;101838.56;;;19.31;82.77
60355;BME280;46198;51.464;-0.066;2022-07-21T00:23:13;101845.19;;;19.35;83.56
60355;BME280;46198;51.464;-0.066;2022-07-21T00:25:41;101850.41;;;19.31;82.79
60355;BME280;46198;51.464;-0.066;2022-07-21T00:28:11;101843.50;;;19.12;83.77
60355;BME280;46198;51.464;-0.066;2022-07-21T00:30:39;101850.75;;;19.18;83.04
60355;BME280;46198;51.464;-0.066;2022-07-21T00:33:08;101847.84;;;19.08;81.91
60355;BME280;46198;51.464;-0.066;2022-07-21T00:35:36;101854.88;;;18.98;83.34
60355;BME280;46198;51.464;-0.066;2022-07-21T00:38:04;101850.47;;;18.97;80.22
60355;BME280;46198;51.464;-0.066;2022-07-21T00:40:33;101850.69;;;18.96;83.03
60355;BME280;46198;51.464;-0.066;2022-07-21T00:43:01;101851.03;;;18.82;81.01
60355;BME280;46198;51.464;-0.066;2022-07-21T00:45:31;101846.75;;;18.92;80.84
60355;BME280;46198;51.464;-0.066;2022-07-21T00:47:59;101854.09;;;18.86;81.34
60355;BME280;46198;51.464;-0.066;2022-07-21T00:50:28;101844.88;;;18.92;80.32
60355;BME280;46198;51.464;-0.066;2022-07-21T00:52:57;101856.09;;;18.74;79.88
60355;BME280;46198;51.464;-0.066;2022-07-21T00:55:26;101845.59;;;18.71;80.57
60355;BME280;46198;51.464;-0.066;2022-07-21T00:57:54;101845.72;;;18.76;78.11
60355;BME280;46198;51.464;-0.066;2022-07-21T01:00:23;101843.44;;;18.73;78.78
60355;BME280;46198;51.464;-0.066;2022-07-21T01:02:53;101850.09;;;18.60;78.43
60355;BME280;46198;51.464;-0.066;2022-07-21T01:05:22;101852.34;;;18.63;77.74
60355;BME280;46198;51.464;-0.066;2022-07-21T01:07:53;101853.06;;;18.58;78.49
60355;BME280;46198;51.464;-0.066;2022-07-21T01:10:23;101855.50;;;18.72;79.08
60355;BME280;46198;51.464;-0.066;2022-07-21T01:12:52;101856.72;;;18.47;78.32
60355;BME280;46198;51.464;-0.066;2022-07-21T01:15:21;101856.81;;;18.52;76.39
60355;BME280;46198;51.464;-0.066;2022-07-21T01:17:49;101858.06;;;18.61;76.51
60355;BME280;46198;51.464;-0.066;2022-07-21T01:20:21;101865.81;;;18.65;76.36
60355;BME280;46198;51.464;-0.066;2022-07-21T01:22:52;101862.75;;;18.61;76.58
60355;BME280;46198;51.464;-0.066;2022-07-21T01:25:21;101862.75;;;18.61;77.26
60355;BME280;46198;51.464;-0.066;2022-07-21T01:27:49;101858.38;;;18.48;77.87
60355;BME280;46198;51.464;-0.066;2022-07-21T01:30:18;101859.75;;;18.63;77.97
60355;BME280;46198;51.464;-0.066;2022-07-21T01:32:46;101863.06;;;18.48;79.34
60355;BME280;46198;51.464;-0.066;2022-07-21T01:35:15;101862.22;;;18.47;79.88
60355;BME280;46198;51.464;-0.066;2022-07-21T01:37:44;101862.03;;;18.37;81.91
60355;BME280;46198;51.464;-0.066;2022-07-21T01:40:15;101862.41;;;18.41;82.57
60355;BME280;46198;51.464;-0.066;2022-07-21T01:43:04;101856.41;;;18.44;80.25
60355;BME280;46198;51.464;-0.066;2022-07-21T01:45:39;101857.31;;;18.32;81.94
60355;BME280;46198;51.464;-0.066;2022-07-21T01:48:08;101858.22;;;18.38;81.32
60355;BME280;46198;51.464;-0.066;2022-07-21T01:50:37;101865.78;;;18.31;79.71
60355;BME280;46198;51.464;-0.066;2022-07-21T01:53:05;101858.13;;;18.33;79.12
60355;BME280;46198;51.464;-0.066;2022-07-21T01:55:35;101854.28;;;18.34;79.70
60355;BME280;46198;51.464;-0.066;2022-07-21T01:58:03;101849.56;;;18.46;79.26
60355;BME280;46198;51.464;-0.066;2022-07-21T02:00:32;101847.88;;;18.45;79.30
60355;BME280;46198;51.464;-0.066;2022-07-21T02:03:00;101845.22;;;18.50;78.21
60355;BME280;46198;51.464;-0.066;2022-07-21T02:05:28;101843.16;;;18.41;77.68
60355;BME280;46198;51.464;-0.066;2022-07-21T02:07:56;101839.22;;;18.53;76.75
60355;BME280;46198;51.464;-0.066;2022-07-21T02:10:25;101848.06;;;18.55;77.67
60355;BME280;46198;51.464;-0.066;2022-07-21T02:12:54;101848.56;;;18.52;76.68
60355;BME280;46198;51.464;-0.066;2022-07-21T02:15:23;101850.81;;;18.55;76.68
60355;BME280;46198;51.464;-0.066;2022-07-21T02:17:52;101853.91;;;18.59;76.42
60355;BME280;46198;51.464;-0.066;2022-07-21T02:20:20;101847.94;;;18.62;76.17
60355;BME280;46198;51.464;-0.066;2022-07-21T02:22:48;101842.75;;;18.49;76.62
60355;BME280;46198;51.464;-0.066;2022-07-21T02:25:18;101831.88;;;18.59;76.07
60355;BME280;46198;51.464;-0.066;2022-07-21T02:27:46;101844.91;;;18.64;75.80
60355;BME280;46198;51.464;-0.066;2022-07-21T02:30:16;101848.34;;;18.54;76.68
60355;BME280;46198;51.464;-0.066;2022-07-21T02:32:44;101851.22;;;18.47;77.29
60355;BME280;46198;51.464;-0.066;2022-07-21T02:35:13;101848.16;;;18.60;76.72
60355;BME280;46198;51.464;-0.066;2022-07-21T02:37:41;101848.84;;;18.68;75.71
60355;BME280;46198;51.464;-0.066;2022-07-21T02:40:09;101845.19;;;18.62;75.23
60355;BME280;46198;51.464;-0.066;2022-07-21T02:42:37;101854.09;;;18.69;74.88
60355;BME280;46198;51.464;-0.066;2022-07-21T02:45:07;101853.75;;;18.66;75.16
60355;BME280;46198;51.464;-0.066;2022-07-21T02:47:52;101858.94;;;18.62;74.78
60355;BME280;46198;51.464;-0.066;2022-07-21T02:50:21;101855.50;;;18.55;75.20
60355;BME280;46198;51.464;-0.066;2022-07-21T02:52:50;101856.41;;;18.60;74.97
60355;BME280;46198;51.464;-0.066;2022-07-21T02:55:22;101853.75;;;18.66;74.56
60355;BME280;46198;51.464;-0.066;2022-07-21T02:58:02;101861.31;;;18.58;74.55
60355;BME280;46198;51.464;-0.066;2022-07-21T03:00:31;101864.06;;;18.58;74.88
60355;BME280;46198;51.464;-0.066;2022-07-21T03:03:02;101852.94;;;18.65;74.71
60355;BME280;46198;51.464;-0.066;2022-07-21T03:05:31;101859.47;;;18.76;74.66
60355;BME280;46198;51.464;-0.066;2022-07-21T03:07:59;101857.09;;;18.68;75.80
60355;BME280;46198;51.464;-0.066;2022-07-21T03:10:28;101865.41;;;18.56;76.43
60355;BME280;46198;51.464;-0.066;2022-07-21T03:12:56;101860.59;;;18.63;75.62
60355;BME280;46198;51.464;-0.066;2022-07-21T03:15:24;101866.81;;;18.58;75.24
60355;BME280;46198;51.464;-0.066;2022-07-21T03:17:53;101864.91;;;18.59;75.50
60355;BME280;46198;51.464;-0.066;2022-07-21T03:20:23;101867.25;;;18.67;75.08
60355;BME280;46198;51.464;-0.066;2022-07-21T03:22:52;101871.25;;;18.59;75.37
60355;BME280;46198;51.464;-0.066;2022-07-21T03:25:20;101872.91;;;18.60;74.73
60355;BME280;46198;51.464;-0.066;2022-07-21T03:27:50;101873.91;;;18.54;75.39
60355;BME280;46198;51.464;-0.066;2022-07-21T03:30:19;101874.25;;;18.58;74.89
60355;BME280;46198;51.464;-0.066;2022-07-21T03:32:49;101876.72;;;18.43;76.18
60355;BME280;46198;51.464;-0.066;2022-07-21T03:35:18;101881.41;;;18.59;75.03
60355;BME280;46198;51.464;-0.066;2022-07-21T03:37:51;101879.91;;;18.51;75.48
60355;BME280;46198;51.464;-0.066;2022-07-21T03:40:21;101887.75;;;18.59;74.48
60355;BME280;46198;51.464;-0.066;2022-07-21T03:42:51;101896.31;;;18.46;75.78
60355;BME280;46198;51.464;-0.066;2022-07-21T03:45:20;101895.13;;;18.42;75.77
60355;BME280;46198;51.464;-0.066;2022-07-21T03:47:48;101894.50;;;18.52;74.75
60355;BME280;46198;51.464;-0.066;2022-07-21T03:50:16;101897.16;;;18.47;75.36
60355;BME280;46198;51.464;-0.066;2022-07-21T03:52:45;101884.97;;;18.43;75.63
60355;BME280;46198;51.464;-0.066;2022-07-21T03:55:15;101890.31;;;18.49;75.27
60355;BME280;46198;51.464;-0.066;2022-07-21T03:57:46;101896.66;;;18.50;74.44
60355;BME280;46198;51.464;-0.066;2022-07-21T04:00:16;101896.25;;;18.58;73.79
60355;BME280;46198;51.464;-0.066;2022-07-21T04:02:45;101901.81;;;18.46;74.53
60355;BME280;46198;51.464;-0.066;2022-07-21T04:05:15;101896.72;;;18.38;74.84
60355;BME280;46198;51.464;-0.066;2022-07-21T04:07:45;101897.16;;;18.47;73.93
60355;BME280;46198;51.464;-0.066;2022-07-21T04:10:17;101893.88;;;18.33;74.87
60355;BME280;46198;51.464;-0.066;2022-07-21T04:12:47;101906.72;;;18.44;73.89
60355;BME280;46198;51.464;-0.066;2022-07-21T04:15:16;101908.97;;;18.47;74.47
60355;BME280;46198;51.464;-0.066;2022-07-21T04:17:45;101906.63;;;18.39;74.52
60355;BME280;46198;51.464;-0.066;2022-07-21T04:20:14;101915.19;;;18.54;73.63
60355;BME280;46198;51.464;-0.066;2022-07-21T04:22:45;101911.72;;;18.47;73.38
60355;BME280;46198;51.464;-0.066;2022-07-21T04:25:16;101923.53;;;18.31;74.77
60355;BME280;46198;51.464;-0.066;2022-07-21T04:27:45;101913.38;;;18.48;73.47
60355;BME280;46198;51.464;-0.066;2022-07-21T04:30:15;101918.63;;;18.33;74.11
60355;BME280;46198;51.464;-0.066;2022-07-21T04:32:44;101918.47;;;18.39;73.37
60355;BME280;46198;51.464;-0.066;2022-07-21T04:35:14;101922.00;;;18.52;71.95
60355;BME280;46198;51.464;-0.066;2022-07-21T04:37:42;101918.81;;;18.43;73.91
60355;BME280;46198;51.464;-0.066;2022-07-21T04:40:12;101924.88;;;18.45;72.63
60355;BME280;46198;51.464;-0.066;2022-07-21T04:42:44;101923.22;;;18.44;73.01
60355;BME280;46198;51.464;-0.066;2022-07-21T04:45:14;101934.19;;;18.27;73.82
60355;BME280;46198;51.464;-0.066;2022-07-21T04:47:46;101928.41;;;18.41;73.24
60355;BME280;46198;51.464;-0.066;2022-07-21T04:50:15;101934.38;;;18.37;73.13
60355;BME280;46198;51.464;-0.066;2022-07-21T04:52:44;101936.19;;;18.32;73.32
60355;BME280;46198;51.464;-0.066;2022-07-21T04:55:13;101939.28;;;18.35;73.29
60355;BME280;46198;51.464;-0.066;2022-07-21T04:57:45;101933.53;;;18.37;72.98
60355;BME280;46198;51.464;-0.066;2022-07-21T05:00:33;101934.56;;;18.48;72.76
60355;BME280;46198;51.464;-0.066;2022-07-21T05:03:01;101941.66;;;18.44;72.90
60355;BME280;46198;51.464;-0.066;2022-07-21T05:05:29;101941.88;;;18.42;72.79
60355;BME280;46198;51.464;-0.066;2022-07-21T05:07:57;101946.88;;;18.45;73.30
60355;BME280;46198;51.464;-0.066;2022-07-21T05:10:26;101941.88;;;18.42;73.29
60355;BME280;46198;51.464;-0.066;2022-07-21T05:12:55;101947.59;;;18.52;72.71
60355;BME280;46198;51.464;-0.066;2022-07-21T05:15:24;101949.59;;;18.57;72.63
60355;BME280;46198;51.464;-0.066;2022-07-21T05:17:52;101958.78;;;18.63;72.67
60355;BME280;46198;51.464;-0.066;2022-07-21T05:20:21;101958.78;;;18.63;72.42
60355;BME280;46198;51.464;-0.066;2022-07-21T05:22:49;101951.59;;;18.61;73.05
60355;BME280;46198;51.464;-0.066;2022-07-21T05:25:17;101956.97;;;18.68;72.55
60355;BME280;46198;51.464;-0.066;2022-07-21T05:27:45;101959.28;;;18.59;72.56
60355;BME280;46198;51.464;-0.066;2022-07-21T05:30:15;101966.88;;;18.69;72.55
60355;BME280;46198;51.464;-0.066;2022-07-21T05:32:43;101961.13;;;18.71;72.68
60355;BME280;46198;51.464;-0.066;2022-07-21T05:35:14;101965.91;;;18.75;71.35
60355;BME280;46198;51.464;-0.066;2022-07-21T05:37:42;101962.44;;;18.80;72.16
60355;BME280;46198;51.464;-0.066;2022-07-21T05:40:12;101970.28;;;18.88;72.72
60355;BME280;46198;51.464;-0.066;2022-07-21T05:42:40;101973.94;;;18.77;72.39
60355;BME280;46198;51.464;-0.066;2022-07-21T05:45:09;101971.50;;;18.80;72.24
60355;BME280;46198;51.464;-0.066;2022-07-21T05:47:40;101971.88;;;18.84;72.36
60355;BME280;46198;51.464;-0.066;2022-07-21T05:50:11;101973.13;;;18.93;71.78
60355;BME280;46198;51.464;-0.066;2022-07-21T05:52:40;101971.59;;;18.86;72.12
60355;BME280;46198;51.464;-0.066;2022-07-21T05:55:09;101964.78;;;18.88;72.55
60355;BME280;46198;51.464;-0.066;2022-07-21T05:57:37;101972.38;;;18.81;72.42
60355;BME280;46198;51.464;-0.066;2022-07-21T06:00:12;101970.53;;;18.87;72.19
60355;BME280;46198;51.464;-0.066;2022-07-21T06:02:42;101975.78;;;18.88;71.57
60355;BME280;46198;51.464;-0.066;2022-07-21T06:05:10;101982.31;;;18.99;72.26
60355;BME280;46198;51.464;-0.066;2022-07-21T06:07:39;101989.75;;;18.98;71.55
60355;BME280;46198;51.464;-0.066;2022-07-21T06:10:08;101982.72;;;19.08;71.17
60355;BME280;46198;51.464;-0.066;2022-07-21T06:12:42;101987.81;;;19.16;71.22
60355;BME280;46198;51.464;-0.066;2022-07-21T06:15:11;101984.56;;;19.19;71.05
60355;BME280;46198;51.464;-0.066;2022-07-21T06:17:41;101989.00;;;19.20;70.74
60355;BME280;46198;51.464;-0.066;2022-07-21T06:20:11;101996.34;;;18.97;71.62
60355;BME280;46198;51.464;-0.066;2022-07-21T06:22:39;101995.25;;;18.98;71.78
60355;BME280;46198;51.464;-0.066;2022-07-21T06:25:08;101996.59;;;19.13;71.05
60355;BME280;46198;51.464;-0.066;2022-07-21T06:27:36;101995.56;;;19.19;70.84
60355;BME280;46198;51.464;-0.066;2022-07-21T06:30:05;101995.59;;;19.36;70.57
60355;BME280;46198;51.464;-0.066;2022-07-21T06:32:34;101989.41;;;19.29;71.30
60355;BME280;46198;51.464;-0.066;2022-07-21T06:35:04;101992.59;;;19.20;71.65
60355;BME280;46198;51.464;-0.066;2022-07-21T06:37:33;101987.44;;;19.41;70.54
60355;BME280;46198;51.464;-0.066;2022-07-21T06:40:05;101985.91;;;19.50;70.97
60355;BME280;46198;51.464;-0.066;2022-07-21T06:42:34;101990.84;;;19.48;71.06
60355;BME280;46198;51.464;-0.066;2022-07-21T06:45:02;101986.59;;;19.57;71.25
60355;BME280;46198;51.464;-0.066;2022-07-21T06:47:31;101990.81;;;19.65;70.63
60355;BME280;46198;51.464;-0.066;2022-07-21T06:49:59;101999.25;;;19.58;69.49
60355;BME280;46198;51.464;-0.066;2022-07-21T06:52:34;101994.06;;;19.62;69.73
60355;BME280;46198;51.464;-0.066;2022-07-21T06:55:03;102003.28;;;19.51;70.18
60355;BME280;46198;51.464;-0.066;2022-07-21T06:57:33;102008.44;;;19.64;70.44
60355;BME280;46198;51.464;-0.066;2022-07-21T07:00:03;102006.47;;;19.76;69.46
60355;BME280;46198;51.464;-0.066;2022-07-21T07:02:32;102017.13;;;19.73;69.89
60355;BME280;46198;51.464;-0.066;2022-07-21T07:05:01;102012.66;;;19.66;69.68
60355;BME280;46198;51.464;-0.066;2022-07-21T07:07:34;102011.59;;;19.89;69.02
60355;BME280;46198;51.464;-0.066;2022-07-21T07:10:03;102019.84;;;19.89;69.36
60355;BME280;46198;51.464;-0.066;2022-07-21T07:12:31;102019.81;;;19.84;69.59
60355;BME280;46198;51.464;-0.066;2022-07-21T07:15:20;102022.88;;;19.88;69.23
60355;BME280;46198;51.464;-0.066;2022-07-21T07:17:48;102025.97;;;19.91;69.06
60355;BME280;46198;51.464;-0.066;2022-07-21T07:20:16;102026.78;;;20.09;69.33
60355;BME280;46198;51.464;-0.066;2022-07-21T07:22:46;102033.56;;;20.23;68.48
60355;BME280;46198;51.464;-0.066;2022-07-21T07:25:15;102030.75;;;20.18;68.51
60355;BME280;46198;51.464;-0.066;2022-07-21T07:27:52;102031.78;;;20.12;69.23
60355;BME280;46198;51.464;-0.066;2022-07-21T07:30:21;102029.78;;;20.29;68.69
60355;BME280;46198;51.464;-0.066;2022-07-21T07:32:49;102031.19;;;20.32;68.15
60355;BME280;46198;51.464;-0.066;2022-07-21T07:35:17;102039.25;;;20.33;68.33
60355;BME280;46198;51.464;-0.066;2022-07-21T07:37:47;102029.78;;;20.51;67.13
60355;BME280;46198;51.464;-0.066;2022-07-21T07:40:18;102030.63;;;20.52;66.99
60355;BME280;46198;51.464;-0.066;2022-07-21T07:42:46;102034.63;;;20.61;66.94
60355;BME280;46198;51.464;-0.066;2022-07-21T07:45:15;102039.75;;;20.74;67.09
60355;BME280;46198;51.464;-0.066;2022-07-21T07:47:43;102041.59;;;20.91;65.93
60355;BME280;46198;51.464;-0.066;2022-07-21T07:50:13;102049.94;;;20.96;65.27
60355;BME280;46198;51.464;-0.066;2022-07-21T07:52:42;102054.09;;;21.25;64.86
60355;BME280;46198;51.464;-0.066;2022-07-21T07:55:13;102048.22;;;21.49;65.36
60355;BME280;46198;51.464;-0.066;2022-07-21T07:57:42;102042.00;;;21.64;63.57
60355;BME280;46198;51.464;-0.066;2022-07-21T08:00:12;102039.59;;;21.73;64.04
60355;BME280;46198;51.464;-0.066;2022-07-21T08:03:01;102046.72;;;21.63;62.27
60355;BME280;46198;51.464;-0.066;2022-07-21T08:05:29;102040.78;;;21.87;62.96
60355;BME280;46198;51.464;-0.066;2022-07-21T08:07:58;102045.75;;;21.90;60.96
60355;BME280;46198;51.464;-0.066;2022-07-21T08:10:27;102040.84;;;21.97;61.07
60355;BME280;46198;51.464;-0.066;2022-07-21T08:13:07;102046.44;;;22.07;61.40
60355;BME280;46198;51.464;-0.066;2022-07-21T08:15:36;102039.84;;;22.13;60.57
60355;BME280;46198;51.464;-0.066;2022-07-21T08:18:05;102038.66;;;21.99;60.37
60355;BME280;46198;51.464;-0.066;2022-07-21T08:20:35;102034.81;;;22.05;59.82
60355;BME280;46198;51.464;-0.066;2022-07-21T08:23:04;102047.75;;;22.42;60.13
60355;BME280;46198;51.464;-0.066;2022-07-21T08:25:34;102050.63;;;22.68;58.96
60355;BME280;46198;51.464;-0.066;2022-07-21T08:28:03;102058.94;;;22.73;57.97
60355;BME280;46198;51.464;-0.066;2022-07-21T08:30:32;102056.41;;;22.56;58.39
60355;BME280;46198;51.464;-0.066;2022-07-21T08:33:01;102051.44;;;22.68;58.83
60355;BME280;46198;51.464;-0.066;2022-07-21T08:35:30;102051.16;;;22.65;58.29
60355;BME280;46198;51.464;-0.066;2022-07-21T08:38:02;102057.53;;;22.70;58.48
60355;BME280;46198;51.464;-0.066;2022-07-21T08:40:36;102062.00;;;22.82;58.51
60355;BME280;46198;51.464;-0.066;2022-07-21T08:43:05;102057.28;;;22.77;57.67
60355;BME280;46198;51.464;-0.066;2022-07-21T08:45:37;102061.97;;;22.61;57.04
60355;BME280;46198;51.464;-0.066;2022-07-21T08:48:07;102058.91;;;22.68;57.76
60355;BME280;46198;51.464;-0.066;2022-07-21T08:50:37;102057.84;;;22.79;58.20
60355;BME280;46198;51.464;-0.066;2022-07-21T08:53:06;102061.41;;;22.74;58.10
60355;BME280;46198;51.464;-0.066;2022-07-21T08:55:37;102066.03;;;22.48;58.24
60355;BME280;46198;51.464;-0.066;2022-07-21T08:58:08;102074.00;;;22.34;58.53
60355;BME280;46198;51.464;-0.066;2022-07-21T09:00:37;102076.28;;;22.05;59.27
60355;BME280;46198;51.464;-0.066;2022-07-21T09:03:11;102066.72;;;22.81;59.83
60355;BME280;46198;51.464;-0.066;2022-07-21T09:05:40;102071.13;;;22.82;57.71
60355;BME280;46198;51.464;-0.066;2022-07-21T09:08:09;102073.34;;;22.75;57.77
60355;BME280;46198;51.464;-0.066;2022-07-21T09:10:39;102074.44;;;22.74;58.75
60355;BME280;46198;51.464;-0.066;2022-07-21T09:13:07;102069.75;;;22.85;58.35
60355;BME280;46198;51.464;-0.066;2022-07-21T09:15:36;102067.41;;;23.29;56.72
60355;BME280;46198;51.464;-0.066;2022-07-21T09:18:08;102067.03;;;22.95;57.13
60355;BME280;46198;51.464;-0.066;2022-07-21T09:20:45;102073.13;;;22.92;57.21
60355;BME280;46198;51.464;-0.066;2022-07-21T09:23:16;102064.78;;;22.87;56.88
60355;BME280;46198;51.464;-0.066;2022-07-21T09:25:47;102073.91;;;22.72;57.70
60355;BME280;46198;51.464;-0.066;2022-07-21T09:28:17;102081.75;;;23.00;58.27
60355;BME280;46198;51.464;-0.066;2022-07-21T09:30:55;102072.09;;;23.29;56.12
60355;BME280;46198;51.464;-0.066;2022-07-21T09:33:27;102066.03;;;23.62;57.20
60355;BME280;46198;51.464;-0.066;2022-07-21T09:36:02;102075.13;;;24.24;55.82
60355;BME280;46198;51.464;-0.066;2022-07-21T09:38:33;102063.47;;;24.17;55.24
60355;BME280;46198;51.464;-0.066;2022-07-21T09:41:14;102070.44;;;23.99;53.61
60355;BME280;46198;51.464;-0.066;2022-07-21T09:43:43;102074.38;;;23.78;54.70
60355;BME280;46198;51.464;-0.066;2022-07-21T09:46:14;102078.50;;;23.85;55.07
60355;BME280;46198;51.464;-0.066;2022-07-21T09:48:45;102074.03;;;23.64;55.78
60355;BME280;46198;51.464;-0.066;2022-07-21T09:51:35;102091.78;;;23.53;54.96
60355;BME280;46198;51.464;-0.066;2022-07-21T09:54:09;102091.22;;;23.30;56.11
60355;BME280;46198;51.464;-0.066;2022-07-21T09:56:40;102089.28;;;23.36;55.31
60355;BME280;46198;51.464;-0.066;2022-07-21T09:59:10;102082.94;;;23.66;55.99
60355;BME280;46198;51.464;-0.066;2022-07-21T10:01:39;102092.09;;;23.46;54.81
60355;BME280;46198;51.464;-0.066;2022-07-21T10:04:08;102079.03;;;23.41;55.24
60355;BME280;46198;51.464;-0.066;2022-07-21T10:06:38;102074.91;;;23.64;55.11
60355;BME280;46198;51.464;-0.066;2022-07-21T10:09:08;102081.28;;;23.85;53.81
60355;BME280;46198;51.464;-0.066;2022-07-21T10:11:41;102081.44;;;24.45;53.14
60355;BME280;46198;51.464;-0.066;2022-07-21T10:14:10;102085.31;;;24.49;53.08
60355;BME280;46198;51.464;-0.066;2022-07-21T10:16:39;102084.97;;;24.61;52.61
60355;BME280;46198;51.464;-0.066;2022-07-21T10:19:21;102083.19;;;24.10;53.05
60355;BME280;46198;51.464;-0.066;2022-07-21T10:21:56;102080.56;;;24.60;51.88
60355;BME280;46198;51.464;-0.066;2022-07-21T10:24:27;102078.78;;;24.80;50.94
60355;BME280;46198;51.464;-0.066;2022-07-21T10:27:02;102076.25;;;24.88;51.84
60355;BME280;46198;51.464;-0.066;2022-07-21T10:29:51;102078.00;;;25.24;50.82
60355;BME280;46198;51.464;-0.066;2022-07-21T10:32:29;102075.31;;;25.08;51.28
60355;BME280;46198;51.464;-0.066;2022-07-21T10:35:00;102073.00;;;25.20;50.84
60355;BME280;46198;51.464;-0.066;2022-07-21T10:37:45;102075.81;;;25.10;51.56
60355;BME280;46198;51.464;-0.066;2022-07-21T10:40:38;102073.25;;;25.24;50.40
60355;BME280;46198;51.464;-0.066;2022-07-21T10:46:36;102065.25;;;25.12;49.98
60355;BME280;46198;51.464;-0.066;2022-07-21T10:49:07;102075.19;;;25.29;50.06
60355;BME280;46198;51.464;-0.066;2022-07-21T10:51:37;102076.47;;;24.97;50.29
60355;BME280;46198;51.464;-0.066;2022-07-21T10:54:20;102070.88;;;25.02;51.74
60355;BME280;46198;51.464;-0.066;2022-07-21T10:57:24;102073.84;;;24.71;50.87
60355;BME280;46198;51.464;-0.066;2022-07-21T11:00:22;102066.31;;;24.72;51.65
60355;BME280;46198;51.464;-0.066;2022-07-21T11:02:57;102065.13;;;24.88;51.77
60355;BME280;46198;51.464;-0.066;2022-07-21T11:05:28;102068.84;;;24.73;51.00
60355;BME280;46198;51.464;-0.066;2022-07-21T11:08:29;102067.75;;;24.64;51.01
60355;BME280;46198;51.464;-0.066;2022-07-21T11:11:07;102070.03;;;24.57;51.72
60355;BME280;46198;51.464;-0.066;2022-07-21T11:13:59;102071.66;;;24.63;53.17
60355;BME280;46198;51.464;-0.066;2022-07-21T11:16:58;102079.38;;;24.76;51.92
60355;BME280;46198;51.464;-0.066;2022-07-21T11:19:34;102082.00;;;25.02;51.11
60355;BME280;46198;51.464;-0.066;2022-07-21T11:22:04;102072.97;;;24.81;51.94
60355;BME280;46198;51.464;-0.066;2022-07-21T11:24:33;102078.75;;;24.90;50.96
60355;BME280;46198;51.464;-0.066;2022-07-21T11:27:03;102078.59;;;24.66;51.47
60355;BME280;46198;51.464;-0.066;2022-07-21T11:29:33;102079.97;;;24.63;51.02
60355;BME280;46198;51.464;-0.066;2022-07-21T11:32:03;102068.13;;;24.97;51.46
60355;BME280;46198;51.464;-0.066;2022-07-21T11:34:45;102071.00;;;25.31;49.71
60355;BME280;46198;51.464;-0.066;2022-07-21T11:37:15;102063.56;;;25.22;49.68
60355;BME280;46198;51.464;-0.066;2022-07-21T11:40:03;102076.41;;;25.07;50.60
60355;BME280;46198;51.464;-0.066;2022-07-21T11:42:32;102071.00;;;24.82;50.08
60355;BME280;46198;51.464;-0.066;2022-07-21T11:45:01;102069.34;;;24.81;50.41
60355;BME280;46198;51.464;-0.066;2022-07-21T11:47:29;102071.44;;;24.99;49.40
60355;BME280;46198;51.464;-0.066;2022-07-21T11:50:00;102072.41;;;24.79;50.48
60355;BME280;46198;51.464;-0.066;2022-07-21T11:52:30;102065.31;;;25.02;50.53
60355;BME280;46198;51.464;-0.066;2022-07-21T11:55:02;102064.88;;;24.85;50.21
60355;BME280;46198;51.464;-0.066;2022-07-21T11:57:30;102066.06;;;24.68;51.00
60355;BME280;46198;51.464;-0.066;2022-07-21T11:59:59;102057.44;;;24.70;50.11
60355;BME280;46198;51.464;-0.066;2022-07-21T12:02:37;102058.47;;;24.89;50.92
60355;BME280;46198;51.464;-0.066;2022-07-21T12:05:08;102064.00;;;24.94;50.65
60355;BME280;46198;51.464;-0.066;2022-07-21T12:07:37;102068.22;;;24.82;49.74
60355;BME280;46198;51.464;-0.066;2022-07-21T12:10:09;102067.56;;;25.00;50.81
60355;BME280;46198;51.464;-0.066;2022-07-21T12:12:41;102066.16;;;25.03;49.87
60355;BME280;46198;51.464;-0.066;2022-07-21T12:15:11;102069.13;;;25.22;49.12
60355;BME280;46198;51.464;-0.066;2022-07-21T12:17:43;102073.63;;;25.07;50.79
60355;BME280;46198;51.464;-0.066;2022-07-21T12:20:13;102061.34;;;25.18;49.34
60355;BME280;46198;51.464;-0.066;2022-07-21T12:22:44;102062.03;;;25.39;48.91
60355;BME280;46198;51.464;-0.066;2022-07-21T12:25:15;102056.38;;;25.15;48.68
60355;BME280;46198;51.464;-0.066;2022-07-21T12:27:45;102060.78;;;25.22;49.78
60355;BME280;46198;51.464;-0.066;2022-07-21T12:30:32;102057.16;;;25.21;48.59
60355;BME280;46198;51.464;-0.066;2022-07-21T12:33:03;102058.88;;;25.17;48.48
60355;BME280;46198;51.464;-0.066;2022-07-21T12:35:34;102057.91;;;25.32;49.25
60355;BME280;46198;51.464;-0.066;2022-07-21T12:38:08;102060.69;;;25.32;48.79
60355;BME280;46198;51.464;-0.066;2022-07-21T12:40:39;102057.41;;;25.30;48.70
60355;BME280;46198;51.464;-0.066;2022-07-21T12:43:28;102061.97;;;25.05;48.75
60355;BME280;46198;51.464;-0.066;2022-07-21T12:45:59;102051.34;;;25.17;49.74
60355;BME280;46198;51.464;-0.066;2022-07-21T12:48:29;102053.13;;;24.98;48.69
60355;BME280;46198;51.464;-0.066;2022-07-21T12:51:09;102052.94;;;24.84;49.44
60355;BME280;46198;51.464;-0.066;2022-07-21T12:53:42;102053.53;;;24.81;49.63
60355;BME280;46198;51.464;-0.066;2022-07-21T12:56:11;102042.72;;;24.74;49.46
60355;BME280;46198;51.464;-0.066;2022-07-21T12:58:40;102051.00;;;24.80;50.25
60355;BME280;46198;51.464;-0.066;2022-07-21T13:01:09;102058.94;;;24.47;49.40
60355;BME280;46198;51.464;-0.066;2022-07-21T13:03:37;102052.78;;;24.60;49.70